sensor_id;sensor_type;location;lat;lon;timestamp;temperature;humidity
5492;DHT22;2768;53.540;10.224;2023-06-14T00:05:14;19.10;1.00
5492;DHT22;2768;53.540;10.224;2023-06-14T00:11:08;19.00;1.00
5492;DHT22;2768;53.540;10.224;2023-06-14T00:17:03;18.90;1.00
5492;DHT22;2768;53.540;10.224;2023-06-14T00:22:59;18.90;1.00
5492;DHT22;2768;53.540;10.224;2023-06-14T00:28:53;19.10;1.00
5492;DHT22;2768;53.540;10.224;2023-06-14T00:34:48;19.10;1.00
5492;DHT22;2768;53.540;10.224;2023-06-14T00:40:41;19.10;1.00
5492;DHT22;2768;53.540;10.224;2023-06-14T00:46:38;18.80;1.00
5492;DHT22;2768;53.540;10.224;2023-06-14T00:52:32;18.80;1.00
5492;DHT22;2768;53.540;10.224;2023-06-14T00:58:27;18.70;1.00
5492;DHT22;2768;53.540;10.224;2023-06-14T01:04:21;18.40;1.00
5492;DHT22;2768;53.540;10.224;2023-06-14T01:10:26;18.60;1.00
5492;DHT22;2768;53.540;10.224;2023-06-14T01:16:24;18.40;1.00
5492;DHT22;2768;53.540;10.224;2023-06-14T01:22:18;18.50;1.00
5492;DHT22;2768;53.540;10.224;2023-06-14T01:28:15;18.20;1.00
5492;DHT22;2768;53.540;10.224;2023-06-14T01:34:09;17.80;1.00
5492;DHT22;2768;53.540;10.224;2023-06-14T01:40:04;17.90;1.00
5492;DHT22;2768;53.540;10.224;2023-06-14T01:46:01;17.90;1.00
5492;DHT22;2768;53.540;10.224;2023-06-14T01:51:56;18.20;1.00
5492;DHT22;2768;53.540;10.224;2023-06-14T01:57:49;17.70;1.00
5492;DHT22;2768;53.540;10.224;2023-06-14T02:03:44;17.50;1.00
5492;DHT22;2768;53.540;10.224;2023-06-14T02:09:40;17.50;1.00
5492;DHT22;2768;53.540;10.224;2023-06-14T02:15:33;17.50;1.00
5492;DHT22;2768;53.540;10.224;2023-06-14T02:21:29;17.80;1.00
5492;DHT22;2768;53.540;10.224;2023-06-14T02:27:22;17.60;1.00
5492;DHT22;2768;53.540;10.224;2023-06-14T02:33:15;17.40;1.00
5492;DHT22;2768;53.540;10.224;2023-06-14T02:39:11;17.50;1.00
5492;DHT22;2768;53.540;10.224;2023-06-14T02:45:05;17.60;1.00
5492;DHT22;2768;53.540;10.224;2023-06-14T02:50:58;17.90;1.00
5492;DHT22;2768;53.540;10.224;2023-06-14T02:56:53;17.70;1.00
5492;DHT22;2768;53.540;10.224;2023-06-14T03:02:47;17.60;1.00
5492;DHT22;2768;53.540;10.224;2023-06-14T03:08:41;17.40;1.00
5492;DHT22;2768;53.540;10.224;2023-06-14T03:14:39;17.50;1.00
5492;DHT22;2768;53.540;10.224;2023-06-14T03:20:34;17.50;1.00
5492;DHT22;2768;53.540;10.224;2023-06-14T03:26:27;17.30;1.00
5492;DHT22;2768;53.540;10.224;2023-06-14T03:32:26;17.20;1.00
5492;DHT22;2768;53.540;10.224;2023-06-14T03:38:19;17.50;1.00
5492;DHT22;2768;53.540;10.224;2023-06-14T03:44:15;17.40;1.00
5492;DHT22;2768;53.540;10.224;2023-06-14T03:50:12;17.50;1.00
5492;DHT22;2768;53.540;10.224;2023-06-14T03:56:05;17.70;1.00
5492;DHT22;2768;53.540;10.224;2023-06-14T04:02:05;17.60;1.00
5492;DHT22;2768;53.540;10.224;2023-06-14T04:08:00;17.50;1.00
5492;DHT22;2768;53.540;10.224;2023-06-14T04:13:56;17.40;1.00
5492;DHT22;2768;53.540;10.224;2023-06-14T04:19:50;17.40;1.00
5492;DHT22;2768;53.540;10.224;2023-06-14T04:25:44;17.40;1.00
5492;DHT22;2768;53.540;10.224;2023-06-14T04:31:40;17.60;1.00
5492;DHT22;2768;53.540;10.224;2023-06-14T04:37:35;17.60;1.00
5492;DHT22;2768;53.540;10.224;2023-06-14T04:43:34;17.60;1.00
5492;DHT22;2768;53.540;10.224;2023-06-14T04:49:31;17.50;1.00
5492;DHT22;2768;53.540;10.224;2023-06-14T04:55:26;17.70;1.00
5492;DHT22;2768;53.540;10.224;2023-06-14T05:01:21;17.90;1.00
5492;DHT22;2768;53.540;10.224;2023-06-14T05:07:15;18.00;1.00
5492;DHT22;2768;53.540;10.224;2023-06-14T05:13:08;18.10;1.00
5492;DHT22;2768;53.540;10.224;2023-06-14T05:19:04;18.10;1.00
5492;DHT22;2768;53.540;10.224;2023-06-14T05:24:57;18.10;1.00
5492;DHT22;2768;53.540;10.224;2023-06-14T05:30:50;18.00;1.00
5492;DHT22;2768;53.540;10.224;2023-06-14T05:36:45;18.00;1.00
5492;DHT22;2768;53.540;10.224;2023-06-14T05:42:38;18.10;1.00
5492;DHT22;2768;53.540;10.224;2023-06-14T05:48:31;18.20;1.00
5492;DHT22;2768;53.540;10.224;2023-06-14T05:54:26;18.10;1.00
5492;DHT22;2768;53.540;10.224;2023-06-14T06:00:19;18.20;1.00
5492;DHT22;2768;53.540;10.224;2023-06-14T06:06:13;18.20;1.00
5492;DHT22;2768;53.540;10.224;2023-06-14T06:12:08;18.30;1.00
5492;DHT22;2768;53.540;10.224;2023-06-14T06:18:02;18.40;1.00
5492;DHT22;2768;53.540;10.224;2023-06-14T06:23:55;18.30;1.00
5492;DHT22;2768;53.540;10.224;2023-06-14T06:29:50;18.30;1.00
5492;DHT22;2768;53.540;10.224;2023-06-14T06:35:43;18.30;1.00
5492;DHT22;2768;53.540;10.224;2023-06-14T06:41:37;18.50;1.00
5492;DHT22;2768;53.540;10.224;2023-06-14T06:47:33;18.60;1.00
5492;DHT22;2768;53.540;10.224;2023-06-14T06:53:27;18.50;1.00
5492;DHT22;2768;53.540;10.224;2023-06-14T06:59:32;18.80;1.00
5492;DHT22;2768;53.540;10.224;2023-06-14T07:05:27;18.90;1.00
5492;DHT22;2768;53.540;10.224;2023-06-14T07:11:20;19.10;1.00
5492;DHT22;2768;53.540;10.224;2023-06-14T07:17:13;19.10;1.00
5492;DHT22;2768;53.540;10.224;2023-06-14T07:23:08;19.10;1.00
5492;DHT22;2768;53.540;10.224;2023-06-14T07:29:02;19.30;1.00
5492;DHT22;2768;53.540;10.224;2023-06-14T07:34:55;19.40;1.00
5492;DHT22;2768;53.540;10.224;2023-06-14T07:40:50;19.50;1.00
5492;DHT22;2768;53.540;10.224;2023-06-14T07:46:43;19.60;1.00
5492;DHT22;2768;53.540;10.224;2023-06-14T07:52:38;19.80;1.00
5492;DHT22;2768;53.540;10.224;2023-06-14T07:58:32;20.00;1.00
5492;DHT22;2768;53.540;10.224;2023-06-14T08:04:25;20.10;1.00
5492;DHT22;2768;53.540;10.224;2023-06-14T08:10:19;20.20;1.00
5492;DHT22;2768;53.540;10.224;2023-06-14T08:16:14;20.30;1.00
5492;DHT22;2768;53.540;10.224;2023-06-14T08:22:07;20.40;1.00
5492;DHT22;2768;53.540;10.224;2023-06-14T08:28:04;20.60;1.00
5492;DHT22;2768;53.540;10.224;2023-06-14T08:33:58;20.70;1.00
5492;DHT22;2768;53.540;10.224;2023-06-14T08:39:52;20.70;1.00
5492;DHT22;2768;53.540;10.224;2023-06-14T08:45:46;20.90;1.00
5492;DHT22;2768;53.540;10.224;2023-06-14T08:51:44;21.00;1.00
5492;DHT22;2768;53.540;10.224;2023-06-14T08:57:40;21.10;1.00
5492;DHT22;2768;53.540;10.224;2023-06-14T09:03:33;21.30;1.00
5492;DHT22;2768;53.540;10.224;2023-06-14T09:09:28;21.30;1.00
5492;DHT22;2768;53.540;10.224;2023-06-14T09:15:21;21.50;1.00
5492;DHT22;2768;53.540;10.224;2023-06-14T09:21:16;21.70;1.00
5492;DHT22;2768;53.540;10.224;2023-06-14T09:27:15;21.90;1.00
5492;DHT22;2768;53.540;10.224;2023-06-14T09:33:08;21.90;1.00
5492;DHT22;2768;53.540;10.224;2023-06-14T09:39:03;22.00;1.00
5492;DHT22;2768;53.540;10.224;2023-06-14T09:44:59;22.00;1.00
5492;DHT22;2768;53.540;10.224;2023-06-14T09:50:55;22.00;1.00
5492;DHT22;2768;53.540;10.224;2023-06-14T09:56:51;22.00;1.00
5492;DHT22;2768;53.540;10.224;2023-06-14T10:02:49;22.00;1.00
5492;DHT22;2768;53.540;10.224;2023-06-14T10:08:45;22.10;1.00
5492;DHT22;2768;53.540;10.224;2023-06-14T10:14:38;22.40;1.00
5492;DHT22;2768;53.540;10.224;2023-06-14T10:20:39;22.90;1.00
5492;DHT22;2768;53.540;10.224;2023-06-14T10:26:34;23.10;1.00
5492;DHT22;2768;53.540;10.224;2023-06-14T10:32:27;23.60;1.00
5492;DHT22;2768;53.540;10.224;2023-06-14T10:38:30;23.60;1.00
5492;DHT22;2768;53.540;10.224;2023-06-14T10:44:40;23.40;1.00
5492;DHT22;2768;53.540;10.224;2023-06-14T10:50:34;23.80;1.00
5492;DHT22;2768;53.540;10.224;2023-06-14T10:56:29;24.00;1.00
5492;DHT22;2768;53.540;10.224;2023-06-14T11:09:26;23.80;1.00
5492;DHT22;2768;53.540;10.224;2023-06-14T11:15:29;24.10;1.00
5492;DHT22;2768;53.540;10.224;2023-06-14T11:21:24;23.90;1.00
5492;DHT22;2768;53.540;10.224;2023-06-14T11:27:27;24.30;1.00
5492;DHT22;2768;53.540;10.224;2023-06-14T11:33:22;24.10;1.00
5492;DHT22;2768;53.540;10.224;2023-06-14T11:39:16;23.80;1.00
5492;DHT22;2768;53.540;10.224;2023-06-14T11:45:11;24.40;1.00
5492;DHT22;2768;53.540;10.224;2023-06-14T11:51:05;24.30;1.00
5492;DHT22;2768;53.540;10.224;2023-06-14T11:56:59;23.90;1.00
5492;DHT22;2768;53.540;10.224;2023-06-14T12:02:52;24.10;1.00
5492;DHT22;2768;53.540;10.224;2023-06-14T12:08:49;24.30;1.00
5492;DHT22;2768;53.540;10.224;2023-06-14T12:14:42;24.70;1.00
5492;DHT22;2768;53.540;10.224;2023-06-14T12:20:36;24.80;1.00
5492;DHT22;2768;53.540;10.224;2023-06-14T12:26:31;25.10;1.00
5492;DHT22;2768;53.540;10.224;2023-06-14T12:32:24;25.20;1.00
5492;DHT22;2768;53.540;10.224;2023-06-14T12:38:17;25.20;1.00
5492;DHT22;2768;53.540;10.224;2023-06-14T12:44:12;25.40;1.00
5492;DHT22;2768;53.540;10.224;2023-06-14T12:50:07;25.50;1.00
5492;DHT22;2768;53.540;10.224;2023-06-14T12:56:00;26.10;1.00
5492;DHT22;2768;53.540;10.224;2023-06-14T13:01:55;25.50;1.00
5492;DHT22;2768;53.540;10.224;2023-06-14T13:07:48;25.30;1.00
5492;DHT22;2768;53.540;10.224;2023-06-14T13:13:41;25.20;1.00
5492;DHT22;2768;53.540;10.224;2023-06-14T13:19:36;25.40;1.00
5492;DHT22;2768;53.540;10.224;2023-06-14T13:25:29;25.30;1.00
5492;DHT22;2768;53.540;10.224;2023-06-14T13:31:22;25.20;1.00
5492;DHT22;2768;53.540;10.224;2023-06-14T13:37:17;25.60;1.00
5492;DHT22;2768;53.540;10.224;2023-06-14T13:43:10;25.60;1.00
5492;DHT22;2768;53.540;10.224;2023-06-14T13:49:03;25.50;1.00
5492;DHT22;2768;53.540;10.224;2023-06-14T13:55:16;25.70;1.00
5492;DHT22;2768;53.540;10.224;2023-06-14T14:01:26;25.60;1.00
5492;DHT22;2768;53.540;10.224;2023-06-14T14:07:38;25.50;1.00
5492;DHT22;2768;53.540;10.224;2023-06-14T14:13:50;25.90;1.00
5492;DHT22;2768;53.540;10.224;2023-06-14T14:20:01;26.50;1.00
5492;DHT22;2768;53.540;10.224;2023-06-14T14:26:12;26.00;1.00
5492;DHT22;2768;53.540;10.224;2023-06-14T14:32:25;26.00;1.00
5492;DHT22;2768;53.540;10.224;2023-06-14T14:38:18;26.20;1.00
5492;DHT22;2768;53.540;10.224;2023-06-14T14:44:11;26.20;1.00
5492;DHT22;2768;53.540;10.224;2023-06-14T14:50:06;25.90;1.00
5492;DHT22;2768;53.540;10.224;2023-06-14T14:56:00;26.10;1.00
5492;DHT22;2768;53.540;10.224;2023-06-14T15:01:57;26.40;1.00
5492;DHT22;2768;53.540;10.224;2023-06-14T15:07:52;26.20;1.00
5492;DHT22;2768;53.540;10.224;2023-06-14T15:13:46;26.10;1.00
5492;DHT22;2768;53.540;10.224;2023-06-14T15:19:41;26.00;1.00
5492;DHT22;2768;53.540;10.224;2023-06-14T15:25:35;26.00;1.00
5492;DHT22;2768;53.540;10.224;2023-06-14T15:31:28;26.00;1.00
5492;DHT22;2768;53.540;10.224;2023-06-14T15:37:22;25.90;1.00
5492;DHT22;2768;53.540;10.224;2023-06-14T15:43:16;25.60;1.00
5492;DHT22;2768;53.540;10.224;2023-06-14T15:49:10;25.50;1.00
5492;DHT22;2768;53.540;10.224;2023-06-14T15:55:04;25.50;1.00
5492;DHT22;2768;53.540;10.224;2023-06-14T16:00:58;25.30;1.00
5492;DHT22;2768;53.540;10.224;2023-06-14T16:06:51;25.20;1.00
5492;DHT22;2768;53.540;10.224;2023-06-14T16:12:44;25.30;1.00
5492;DHT22;2768;53.540;10.224;2023-06-14T16:18:39;25.10;1.00
5492;DHT22;2768;53.540;10.224;2023-06-14T16:24:33;25.00;1.00
5492;DHT22;2768;53.540;10.224;2023-06-14T16:30:26;25.00;1.00
5492;DHT22;2768;53.540;10.224;2023-06-14T16:36:24;24.90;1.00
5492;DHT22;2768;53.540;10.224;2023-06-14T16:42:17;24.70;1.00
5492;DHT22;2768;53.540;10.224;2023-06-14T16:48:10;24.70;1.00
5492;DHT22;2768;53.540;10.224;2023-06-14T16:54:05;24.60;1.00
5492;DHT22;2768;53.540;10.224;2023-06-14T16:59:58;24.50;1.00
5492;DHT22;2768;53.540;10.224;2023-06-14T17:05:55;24.30;1.00
5492;DHT22;2768;53.540;10.224;2023-06-14T17:11:49;24.30;1.00
5492;DHT22;2768;53.540;10.224;2023-06-14T17:17:43;24.20;1.00
5492;DHT22;2768;53.540;10.224;2023-06-14T17:23:36;24.10;1.00
5492;DHT22;2768;53.540;10.224;2023-06-14T17:29:31;24.00;1.00
5492;DHT22;2768;53.540;10.224;2023-06-14T17:35:24;23.90;1.00
5492;DHT22;2768;53.540;10.224;2023-06-14T17:41:17;23.70;1.00
5492;DHT22;2768;53.540;10.224;2023-06-14T17:47:12;23.60;1.00
5492;DHT22;2768;53.540;10.224;2023-06-14T17:53:26;23.50;1.00
5492;DHT22;2768;53.540;10.224;2023-06-14T17:59:19;23.50;1.00
5492;DHT22;2768;53.540;10.224;2023-06-14T18:05:14;23.50;1.00
5492;DHT22;2768;53.540;10.224;2023-06-14T18:11:07;23.40;1.00
5492;DHT22;2768;53.540;10.224;2023-06-14T18:17:00;23.20;1.00
5492;DHT22;2768;53.540;10.224;2023-06-14T18:22:54;23.20;1.00
5492;DHT22;2768;53.540;10.224;2023-06-14T18:28:48;23.20;1.00
5492;DHT22;2768;53.540;10.224;2023-06-14T18:34:41;23.20;1.00
5492;DHT22;2768;53.540;10.224;2023-06-14T18:40:36;23.10;1.00
5492;DHT22;2768;53.540;10.224;2023-06-14T18:46:29;23.10;1.00
5492;DHT22;2768;53.540;10.224;2023-06-14T18:52:22;23.10;1.00
5492;DHT22;2768;53.540;10.224;2023-06-14T18:58:20;22.90;1.00
5492;DHT22;2768;53.540;10.224;2023-06-14T19:04:13;22.90;1.00
5492;DHT22;2768;53.540;10.224;2023-06-14T19:10:07;22.90;1.00
5492;DHT22;2768;53.540;10.224;2023-06-14T19:16:02;22.80;1.00
5492;DHT22;2768;53.540;10.224;2023-06-14T19:21:55;22.60;1.00
5492;DHT22;2768;53.540;10.224;2023-06-14T19:27:49;22.30;1.00
5492;DHT22;2768;53.540;10.224;2023-06-14T19:33:43;22.30;1.00
5492;DHT22;2768;53.540;10.224;2023-06-14T19:39:37;22.30;1.00
5492;DHT22;2768;53.540;10.224;2023-06-14T19:45:31;22.30;1.00
5492;DHT22;2768;53.540;10.224;2023-06-14T19:51:26;22.20;1.00
5492;DHT22;2768;53.540;10.224;2023-06-14T19:57:19;21.90;1.00
5492;DHT22;2768;53.540;10.224;2023-06-14T20:03:12;21.90;1.00
5492;DHT22;2768;53.540;10.224;2023-06-14T20:09:07;21.80;1.00
5492;DHT22;2768;53.540;10.224;2023-06-14T20:15:06;21.60;1.00
5492;DHT22;2768;53.540;10.224;2023-06-14T20:21:02;21.40;1.00
5492;DHT22;2768;53.540;10.224;2023-06-14T20:26:57;21.40;1.00
5492;DHT22;2768;53.540;10.224;2023-06-14T20:32:50;21.30;1.00
5492;DHT22;2768;53.540;10.224;2023-06-14T20:38:43;21.30;1.00
5492;DHT22;2768;53.540;10.224;2023-06-14T20:44:38;21.10;1.00
5492;DHT22;2768;53.540;10.224;2023-06-14T20:50:32;21.00;1.00
5492;DHT22;2768;53.540;10.224;2023-06-14T20:56:25;20.80;1.00
5492;DHT22;2768;53.540;10.224;2023-06-14T21:02:20;20.80;1.00
5492;DHT22;2768;53.540;10.224;2023-06-14T21:08:14;20.60;1.00
5492;DHT22;2768;53.540;10.224;2023-06-14T21:14:07;20.70;1.00
5492;DHT22;2768;53.540;10.224;2023-06-14T21:20:02;20.30;1.00
5492;DHT22;2768;53.540;10.224;2023-06-14T21:25:56;20.20;1.00
5492;DHT22;2768;53.540;10.224;2023-06-14T21:31:49;20.00;1.00
5492;DHT22;2768;53.540;10.224;2023-06-14T21:37:44;20.20;1.00
5492;DHT22;2768;53.540;10.224;2023-06-14T21:43:37;19.80;1.00
5492;DHT22;2768;53.540;10.224;2023-06-14T21:49:30;19.90;1.00
5492;DHT22;2768;53.540;10.224;2023-06-14T21:55:25;19.70;1.00
5492;DHT22;2768;53.540;10.224;2023-06-14T22:01:19;19.80;1.00
5492;DHT22;2768;53.540;10.224;2023-06-14T22:07:13;19.50;1.00
5492;DHT22;2768;53.540;10.224;2023-06-14T22:13:08;19.40;1.00
5492;DHT22;2768;53.540;10.224;2023-06-14T22:19:03;19.30;1.00
5492;DHT22;2768;53.540;10.224;2023-06-14T22:24:56;19.30;1.00
5492;DHT22;2768;53.540;10.224;2023-06-14T22:30:51;19.30;1.00
5492;DHT22;2768;53.540;10.224;2023-06-14T22:36:49;19.00;1.00
5492;DHT22;2768;53.540;10.224;2023-06-14T22:42:45;19.00;1.00
5492;DHT22;2768;53.540;10.224;2023-06-14T22:48:42;19.00;1.00
5492;DHT22;2768;53.540;10.224;2023-06-14T22:54:37;18.90;1.00
5492;DHT22;2768;53.540;10.224;2023-06-14T23:00:30;18.90;1.00
5492;DHT22;2768;53.540;10.224;2023-06-14T23:06:25;18.80;1.00
5492;DHT22;2768;53.540;10.224;2023-06-14T23:12:18;18.50;1.00
5492;DHT22;2768;53.540;10.224;2023-06-14T23:18:12;18.40;1.00
5492;DHT22;2768;53.540;10.224;2023-06-14T23:24:07;18.20;1.00
5492;DHT22;2768;53.540;10.224;2023-06-14T23:30:02;18.10;1.00
5492;DHT22;2768;53.540;10.224;2023-06-14T23:35:56;17.90;1.00
5492;DHT22;2768;53.540;10.224;2023-06-14T23:41:53;18.00;1.00
5492;DHT22;2768;53.540;10.224;2023-06-14T23:47:47;17.80;1.00
5492;DHT22;2768;53.540;10.224;2023-06-14T23:53:40;18.20;1.00
5492;DHT22;2768;53.540;10.224;2023-06-14T23:59:39;17.90;1.00
